Aérodrome :
LOGIN :

S'inscrire | Disclaimer

   EN    FR    IT 

 










Légende :    VFR   VFR Marginal   IFR   IFR Intensif   IFR Très Intensif
Visi : 
Plafond : 
>= 8 km
>= 3000ft
5 à 8 km
1000 à 3000 ft
1500m à 5 km
500 à 1000 ft
800 à 1500m
200 à 500 ft
< 800m
< 200 ft
Symboles :   Orages  Brouillard  Fortes neiges  Fortes précipitations  Vent > 20 kt
SIGMETs :   Divers  Orages  Givrage  Turbulence  Onde Orograph.  Cendres Volcan.







- Altitude de l'aérodrome : 33 ft
- Code IATA : MHZ


EGUN - RAF Mildenhall

DERNIER METAR :
  • 151206Z AUTO 03008KT 9999 -RA OVC008 13/13 A2986 RMK AO2 RAB06 SLP115 $

METARs EXPIRÉS :
  • 151156Z AUTO 03007KT 9999 OVC008 14/14 A2985 RMK AO2 RAE04RAB19E30RAB33E54 SLP111 P0000 60012 70069 T01350135 10135 20123 52013 $
  • 151133Z AUTO 03007KT 9999 -RA OVC008 13/13 A2985 RMK AO2 RAE04RAB19E30RAB33 SLP111 $
  • 151119Z AUTO 01006KT 9999 -RA OVC008 13/13 A2985 RMK AO2 RAE04RAB19 SLP111 $
  • 151109Z AUTO 02009KT 9999 OVC008 13/13 A2985 RMK AO2 RAE04 SLP111 $
  • 151104Z AUTO 01008KT 9999 OVC007 13/13 A2984 RMK AO2 RAE04 SLP108 $
  • 151036Z AUTO 01009KT 9999 -RA OVC007 13/13 A2983 RMK AO2 RAE0956RAB36 SLP105 $
  • 151032Z AUTO 02009KT 9999 OVC007 13/13 A2983 RMK AO2 RAE0956 SLP105 $
  • 151012Z AUTO 02008KT 9999 OVC006 13/13 A2983 RMK AO2 RAE0956 SLP105 $
  • 150957Z AUTO 01007KT 9999 OVC005 13/13 A2983 RMK AO2 RAE56 SLP105 $

TAF TAF EGUN
Valide du 15 à 12h jusqu'au 16 à 18h UTC


151209Z 1512/1618 02012KT 9999 OVC007 QNH2983INS
TEMPO 1512/1521 BKN005
BECMG 1520/1521 07009KT 9999 SCT010 SCT050 QNH2992INS
BECMG 1601/1602 10006KT 3200 BR FEW050 QNH2994INS
BECMG 1608/1609 18012KT 9999 NSW SCT030 QNH2996INS
TEMPO 1610/1616 20012G20KT TX18/1612Z TN10/1602Z
Pas de NOTAMs connus pour ce terrain.
1 SIGMET publié pour la FIR London (EGTT) :
 
Turbulence forte
EGTT SIGMET 04 VALID 151149/151530 EGRR
EGTT LONDON FIR SEV TURB FCST W OF LINE N5500 W00332 - N4957 W00215 FL240/350 MOV E 20KT WKN=



MET'MAP, la Météo Aéronautique d'un coup d'oeil ! - Copyright ORBIFLY Décembre 2007 - Disclaimer

ORBIFLY MET'MAP TEAM :

Programmation & Développement : Alexandra Zaïnal
Conception & Développement : Baudouin d'Aumeries
Co-Programmation & Développement : Marc-Olivier Méhu
Soutien technique & logistique : Manuel Goepfert

Contact : metmap@orbifly.com




SOURCES & CREDITS :

   NOAA